createdAt,value
2019-01-24T00:00:43.944Z,84.59
2019-01-24T00:03:13.666Z,84.43
2019-01-24T00:05:43.334Z,84.30
2019-01-24T00:08:13.115Z,84.35
2019-01-24T00:10:45.157Z,84.59
2019-01-24T00:13:14.816Z,84.31
2019-01-24T00:15:44.503Z,84.16
2019-01-24T00:18:14.191Z,84.06
2019-01-24T00:20:43.789Z,84.01
2019-01-24T00:23:13.573Z,84.23
2019-01-24T00:25:43.217Z,84.60
2019-01-24T00:28:12.978Z,84.64
2019-01-24T00:30:42.643Z,84.68
2019-01-24T00:33:12.265Z,84.66
2019-01-24T00:35:41.890Z,84.66
2019-01-24T00:38:11.643Z,84.27
2019-01-24T00:40:41.348Z,83.99
2019-01-24T00:43:11.110Z,84.13
2019-01-24T00:45:41.018Z,84.26
2019-01-24T00:48:10.746Z,84.53
2019-01-24T00:50:40.482Z,84.37
2019-01-24T00:53:10.259Z,84.22
2019-01-24T00:55:39.873Z,84.15
2019-01-24T00:58:09.487Z,84.12
2019-01-24T01:00:39.180Z,83.89
2019-01-24T01:03:09.031Z,83.85
2019-01-24T01:05:38.701Z,83.93
2019-01-24T01:08:08.496Z,84.04
2019-01-24T01:10:38.288Z,84.35
2019-01-24T01:13:10.451Z,84.23
2019-01-24T01:15:40.309Z,83.86
2019-01-24T01:18:10.110Z,83.58
2019-01-24T01:20:39.751Z,83.65
2019-01-24T01:23:09.608Z,83.67
2019-01-24T01:25:39.326Z,83.88
2019-01-24T01:28:08.967Z,84.19
2019-01-24T01:30:38.729Z,84.14
2019-01-24T01:33:08.290Z,84.08
2019-01-24T01:35:37.937Z,84.09
2019-01-24T01:38:07.702Z,84.30
2019-01-24T01:40:37.259Z,84.42
2019-01-24T01:43:06.881Z,84.52
2019-01-24T01:45:36.581Z,84.52
2019-01-24T01:48:06.260Z,84.55
2019-01-24T01:50:36.076Z,84.63
2019-01-24T01:53:05.804Z,84.68
2019-01-24T01:55:35.512Z,84.47
2019-01-24T01:58:05.130Z,84.62
2019-01-24T02:00:34.898Z,84.74
2019-01-24T02:03:04.424Z,84.78
2019-01-24T02:05:34.058Z,84.82
2019-01-24T02:08:03.760Z,84.90
2019-01-24T02:10:33.403Z,85.09
2019-01-24T02:13:03.041Z,85.10
2019-01-24T02:15:33.187Z,85.08
2019-01-24T02:18:02.722Z,84.86
2019-01-24T02:20:32.287Z,85.33
2019-01-24T02:23:02.273Z,85.72
2019-01-24T02:25:31.811Z,85.84
2019-01-24T02:28:01.428Z,85.73
2019-01-24T02:30:31.037Z,86.00
2019-01-24T02:33:00.725Z,85.97
2019-01-24T02:35:30.326Z,86.11
2019-01-24T02:38:00.079Z,86.34
2019-01-24T02:40:29.684Z,86.43
2019-01-24T02:42:59.389Z,86.52
2019-01-24T02:45:29.133Z,86.65
2019-01-24T02:47:58.805Z,86.61
2019-01-24T02:50:28.404Z,86.49
2019-01-24T02:52:58.227Z,86.53
2019-01-24T02:55:27.723Z,86.45
2019-01-24T02:57:57.243Z,86.09
2019-01-24T03:00:26.930Z,85.80
2019-01-24T03:02:56.549Z,85.68
2019-01-24T03:05:26.357Z,85.58
2019-01-24T03:07:56.120Z,85.51
2019-01-24T03:10:25.860Z,85.43
2019-01-24T03:12:55.614Z,85.00
2019-01-24T03:15:25.309Z,84.88
2019-01-24T03:17:57.055Z,84.66
2019-01-24T03:20:26.572Z,84.37
2019-01-24T03:22:56.418Z,84.22
2019-01-24T03:25:26.102Z,84.03
2019-01-24T03:27:55.650Z,84.06
2019-01-24T03:30:25.569Z,84.09
2019-01-24T03:32:55.079Z,84.18
2019-01-24T03:35:27.472Z,84.26
2019-01-24T03:37:57.253Z,84.26
2019-01-24T03:40:26.781Z,84.35
2019-01-24T03:42:56.378Z,84.32
2019-01-24T03:45:26.224Z,84.42
2019-01-24T03:47:55.847Z,84.39
2019-01-24T03:50:25.333Z,84.24
2019-01-24T03:52:55.076Z,84.08
2019-01-24T03:55:24.747Z,83.84
2019-01-24T03:57:54.538Z,83.80
2019-01-24T04:00:25.550Z,83.91
2019-01-24T04:02:55.177Z,83.91
2019-01-24T04:05:25.115Z,84.11
2019-01-24T04:07:56.296Z,84.09
2019-01-24T04:10:25.965Z,83.73
2019-01-24T04:12:55.493Z,83.57
2019-01-24T04:15:25.994Z,83.45
2019-01-24T04:17:55.606Z,83.36
2019-01-24T04:20:27.575Z,83.19
2019-01-24T04:22:57.471Z,83.24
2019-01-24T04:25:27.433Z,83.30
2019-01-24T04:27:57.011Z,83.41
2019-01-24T04:30:26.761Z,83.53
2019-01-24T04:32:56.338Z,83.18
2019-01-24T04:35:25.963Z,82.85
2019-01-24T04:37:55.885Z,82.95
2019-01-24T04:40:25.454Z,83.40
2019-01-24T04:42:55.170Z,83.45
2019-01-24T04:45:25.009Z,83.21
2019-01-24T04:47:54.556Z,83.02
2019-01-24T04:50:24.307Z,83.02
2019-01-24T04:52:55.669Z,83.02
2019-01-24T04:55:25.276Z,83.21
2019-01-24T04:57:55.062Z,83.15
2019-01-24T05:00:27.436Z,82.99
2019-01-24T05:02:57.170Z,83.18
2019-01-24T05:05:27.952Z,83.23
2019-01-24T05:07:57.954Z,83.36
2019-01-24T05:10:27.572Z,83.36
2019-01-24T05:12:57.266Z,83.29
2019-01-24T05:15:33.350Z,83.28
2019-01-24T05:18:02.984Z,83.14
2019-01-24T05:20:32.571Z,82.96
2019-01-24T05:23:03.014Z,82.97
2019-01-24T05:25:32.894Z,83.16
2019-01-24T05:28:02.571Z,83.33
2019-01-24T05:30:32.394Z,83.41
2019-01-24T05:33:01.971Z,83.91
2019-01-24T05:35:34.984Z,84.02
2019-01-24T05:38:03.112Z,84.01
2019-01-24T05:40:32.855Z,84.48
2019-01-24T05:43:02.518Z,84.62
2019-01-24T05:45:32.229Z,84.75
2019-01-24T05:48:02.011Z,84.18
2019-01-24T05:50:31.756Z,83.10
2019-01-24T05:53:01.398Z,82.92
2019-01-24T05:55:32.257Z,82.23
2019-01-24T05:58:02.169Z,82.11
2019-01-24T06:00:33.449Z,82.11
2019-01-24T06:03:03.174Z,81.71
2019-01-24T06:05:32.772Z,81.69
2019-01-24T06:08:02.531Z,81.94
2019-01-24T06:10:32.232Z,81.94
2019-01-24T06:13:01.965Z,82.05
2019-01-24T06:15:31.748Z,82.04
2019-01-24T06:18:02.430Z,82.29
2019-01-24T06:20:32.268Z,82.74
2019-01-24T06:23:01.985Z,82.88
2019-01-24T06:25:33.865Z,83.21
2019-01-24T06:28:03.553Z,83.50
2019-01-24T06:30:33.280Z,83.84
2019-01-24T06:33:02.895Z,83.98
2019-01-24T06:35:32.720Z,84.14
2019-01-24T06:38:02.610Z,84.17
2019-01-24T06:40:32.337Z,84.15
2019-01-24T06:43:02.213Z,84.36
2019-01-24T06:45:32.102Z,84.53
2019-01-24T06:48:01.720Z,84.48
2019-01-24T06:50:31.427Z,83.82
2019-01-24T06:53:01.026Z,83.56
2019-01-24T06:55:30.541Z,83.24
2019-01-24T06:58:00.094Z,83.14
2019-01-24T07:00:30.012Z,83.27
2019-01-24T07:02:59.707Z,83.53
2019-01-24T07:05:29.200Z,83.58
2019-01-24T07:07:58.980Z,83.34
2019-01-24T07:10:28.545Z,83.28
2019-01-24T07:12:58.223Z,83.12
2019-01-24T07:15:28.045Z,82.94
2019-01-24T07:17:57.762Z,82.78
2019-01-24T07:20:27.352Z,82.89
2019-01-24T07:22:57.000Z,83.07
2019-01-24T07:25:27.750Z,83.13
2019-01-24T07:27:59.526Z,82.86
2019-01-24T07:30:29.182Z,82.88
2019-01-24T07:32:59.729Z,82.65
2019-01-24T07:35:29.525Z,82.55
2019-01-24T07:37:59.200Z,82.75
2019-01-24T07:40:28.901Z,82.97
2019-01-24T07:42:58.508Z,83.08
2019-01-24T07:45:36.636Z,82.88
2019-01-24T07:48:06.497Z,82.84
2019-01-24T07:50:36.396Z,82.89
2019-01-24T07:53:07.198Z,82.92
2019-01-24T07:55:36.834Z,83.02
2019-01-24T07:58:06.875Z,82.88
2019-01-24T08:00:36.610Z,82.80
2019-01-24T08:03:06.272Z,82.44
2019-01-24T08:05:35.970Z,82.10
2019-01-24T08:08:05.657Z,81.79
2019-01-24T08:10:35.152Z,81.70
2019-01-24T08:13:05.006Z,81.80
2019-01-24T08:15:34.855Z,81.92
2019-01-24T08:18:04.648Z,82.29
2019-01-24T08:20:34.456Z,82.25
2019-01-24T08:23:04.180Z,82.36
2019-01-24T08:25:33.858Z,82.21
2019-01-24T08:28:03.620Z,82.11
2019-01-24T08:30:35.885Z,82.13
2019-01-24T08:33:05.582Z,81.88
2019-01-24T08:35:35.130Z,81.82
2019-01-24T08:38:04.966Z,81.18
2019-01-24T08:40:34.759Z,80.91
2019-01-24T08:43:04.482Z,80.79
2019-01-24T08:45:34.386Z,81.09
2019-01-24T08:48:04.082Z,81.05
2019-01-24T08:50:34.009Z,81.03
2019-01-24T08:53:03.906Z,81.02
2019-01-24T08:55:38.176Z,81.06
2019-01-24T08:58:08.112Z,81.06
2019-01-24T09:00:37.927Z,81.11
2019-01-24T09:03:07.621Z,81.03
2019-01-24T09:05:37.518Z,80.82
2019-01-24T09:08:07.481Z,80.54
2019-01-24T09:10:38.349Z,80.61
2019-01-24T09:13:08.132Z,80.75
2019-01-24T09:15:38.086Z,80.66
2019-01-24T09:18:07.805Z,80.37
2019-01-24T09:20:37.556Z,80.37
2019-01-24T09:23:07.444Z,80.47
2019-01-24T09:25:37.287Z,80.34
2019-01-24T09:28:07.474Z,80.01
2019-01-24T09:30:37.214Z,79.90
2019-01-24T09:33:09.154Z,79.78
2019-01-24T09:35:39.096Z,79.67
2019-01-24T09:38:08.791Z,79.65
2019-01-24T09:40:38.392Z,79.48
2019-01-24T09:43:08.016Z,79.08
2019-01-24T09:45:37.654Z,78.92
2019-01-24T09:48:07.373Z,78.32
2019-01-24T09:50:37.290Z,78.23
2019-01-24T09:53:07.133Z,78.29
2019-01-24T09:55:37.045Z,77.39
2019-01-24T09:58:07.199Z,77.21
2019-01-24T10:00:36.930Z,76.86
2019-01-24T10:03:06.554Z,76.60
2019-01-24T10:05:36.331Z,76.26
2019-01-24T10:08:06.110Z,75.71
2019-01-24T10:10:35.876Z,75.06
2019-01-24T10:13:05.637Z,75.10
2019-01-24T10:15:35.282Z,75.15
2019-01-24T10:18:04.812Z,74.76
2019-01-24T10:20:34.488Z,74.65
2019-01-24T10:23:04.157Z,73.35
2019-01-24T10:25:37.069Z,72.75
2019-01-24T10:28:06.692Z,72.84
2019-01-24T10:30:42.564Z,72.78
2019-01-24T10:33:08.195Z,72.77
2019-01-24T10:35:40.420Z,71.83
2019-01-24T10:38:10.251Z,72.15
2019-01-24T10:40:39.851Z,71.68
2019-01-24T10:43:09.757Z,71.23
2019-01-24T10:45:39.622Z,70.30
2019-01-24T10:48:09.274Z,70.58
2019-01-24T10:50:39.123Z,71.34
2019-01-24T10:53:08.697Z,71.03
2019-01-24T10:55:38.605Z,70.83
2019-01-24T10:58:08.342Z,70.60
2019-01-24T11:00:39.654Z,71.15
2019-01-24T11:03:11.294Z,71.31
2019-01-24T11:05:41.179Z,71.05
2019-01-24T11:08:11.169Z,71.92
2019-01-24T11:10:41.050Z,71.39
2019-01-24T11:13:10.793Z,71.52
2019-01-24T11:15:40.367Z,71.68
2019-01-24T11:18:10.061Z,71.64
2019-01-24T11:20:39.918Z,71.91
2019-01-24T11:23:09.547Z,71.81
2019-01-24T11:25:39.125Z,71.85
2019-01-24T11:28:08.930Z,72.04
2019-01-24T11:30:38.719Z,72.23
2019-01-24T11:33:08.545Z,71.85
2019-01-24T11:35:39.552Z,72.03
2019-01-24T11:38:09.339Z,71.70
2019-01-24T11:40:39.180Z,71.39
2019-01-24T11:43:09.010Z,71.12
2019-01-24T11:45:40.358Z,70.77
2019-01-24T11:48:10.074Z,70.72
2019-01-24T11:50:39.903Z,70.87
2019-01-24T11:53:09.382Z,70.87
2019-01-24T11:55:39.127Z,70.94
2019-01-24T11:58:08.829Z,70.69
2019-01-24T12:00:40.904Z,70.40
2019-01-24T12:03:10.617Z,70.21
2019-01-24T12:05:40.460Z,70.09
2019-01-24T12:08:10.128Z,70.58
2019-01-24T12:10:39.765Z,70.29
2019-01-24T12:13:09.432Z,70.39
2019-01-24T12:15:38.992Z,70.06
2019-01-24T12:18:08.529Z,69.67
2019-01-24T12:20:38.323Z,69.65
2019-01-24T12:23:08.103Z,68.65
2019-01-24T12:25:37.917Z,68.32
2019-01-24T12:28:07.831Z,67.69
2019-01-24T12:30:37.830Z,66.59
2019-01-24T12:33:07.736Z,65.72
2019-01-24T12:35:37.428Z,64.86
2019-01-24T12:38:07.841Z,64.44
2019-01-24T12:40:37.694Z,63.15
2019-01-24T12:43:07.542Z,62.97
2019-01-24T12:45:37.555Z,63.02
2019-01-24T12:48:07.212Z,63.17
2019-01-24T12:50:37.115Z,62.23
2019-01-24T12:53:08.561Z,62.82
2019-01-24T12:55:38.394Z,62.66
2019-01-24T12:58:08.237Z,62.41
2019-01-24T13:00:38.178Z,61.63
2019-01-24T13:03:07.848Z,62.37
2019-01-24T13:05:37.618Z,62.53
2019-01-24T13:08:07.289Z,60.87
2019-01-24T13:10:36.884Z,61.28
2019-01-24T13:13:06.800Z,62.09
2019-01-24T13:15:36.999Z,62.61
2019-01-24T13:18:06.693Z,62.56
2019-01-24T13:20:36.508Z,62.26
2019-01-24T13:23:06.538Z,61.68
2019-01-24T13:25:36.555Z,61.85
2019-01-24T13:28:06.533Z,61.63
2019-01-24T13:30:36.204Z,61.44
2019-01-24T13:33:06.006Z,61.90
2019-01-24T13:35:35.826Z,62.83
2019-01-24T13:38:05.715Z,63.10
2019-01-24T13:40:35.922Z,63.52
2019-01-24T13:43:05.782Z,63.78
2019-01-24T13:45:36.682Z,63.84
2019-01-24T13:48:06.395Z,63.27
2019-01-24T13:50:36.327Z,63.39
2019-01-24T13:53:06.134Z,63.72
2019-01-24T13:55:35.865Z,63.08
2019-01-24T13:58:05.875Z,62.74
2019-01-24T14:00:36.549Z,62.61
2019-01-24T14:03:11.862Z,62.74
2019-01-24T14:05:41.731Z,62.13
2019-01-24T14:08:11.742Z,62.56
2019-01-24T14:10:41.458Z,62.71
2019-01-24T14:13:11.161Z,61.98
2019-01-24T14:15:41.019Z,62.61
2019-01-24T14:18:10.749Z,62.70
2019-01-24T14:20:40.306Z,62.38
2019-01-24T14:23:10.245Z,62.22
2019-01-24T14:25:40.041Z,62.11
2019-01-24T14:28:10.089Z,62.59
2019-01-24T14:30:40.113Z,62.80
2019-01-24T14:33:09.842Z,62.75
2019-01-24T14:35:39.690Z,62.96
2019-01-24T14:38:10.100Z,63.13
2019-01-24T14:40:40.184Z,62.85
2019-01-24T14:43:09.618Z,61.49
2019-01-24T14:45:39.469Z,61.70
2019-01-24T14:48:09.108Z,62.18
2019-01-24T14:50:39.006Z,62.83
2019-01-24T14:53:08.785Z,61.44
2019-01-24T14:55:38.637Z,61.41
2019-01-24T14:58:08.401Z,61.46
2019-01-24T15:00:40.994Z,62.02
2019-01-24T15:03:10.678Z,61.74
2019-01-24T15:05:40.386Z,62.02
2019-01-24T15:08:10.154Z,62.28
2019-01-24T15:10:40.002Z,62.41
2019-01-24T15:13:09.565Z,62.99
2019-01-24T15:15:39.220Z,62.97
2019-01-24T15:18:09.071Z,63.82
2019-01-24T15:20:38.682Z,63.87
2019-01-24T15:23:08.303Z,63.47
2019-01-24T15:25:38.110Z,63.21
2019-01-24T15:28:07.894Z,63.20
2019-01-24T15:30:37.747Z,62.94
2019-01-24T15:33:07.554Z,62.63
2019-01-24T15:35:37.124Z,62.84
2019-01-24T15:38:06.722Z,62.38
2019-01-24T15:40:36.607Z,62.64
2019-01-24T15:43:07.418Z,62.14
2019-01-24T15:45:37.174Z,62.13
2019-01-24T15:48:06.958Z,62.18
2019-01-24T15:50:36.660Z,62.28
2019-01-24T15:53:06.315Z,62.51
2019-01-24T15:55:36.218Z,62.92
2019-01-24T15:58:12.437Z,62.95
2019-01-24T16:00:42.093Z,63.09
2019-01-24T16:03:11.773Z,64.08
2019-01-24T16:05:41.399Z,64.04
2019-01-24T16:08:11.223Z,64.49
2019-01-24T16:10:40.860Z,64.50
2019-01-24T16:13:10.770Z,64.19
2019-01-24T16:15:40.640Z,64.22
2019-01-24T16:18:10.412Z,63.99
2019-01-24T16:20:40.239Z,63.75
2019-01-24T16:23:09.990Z,63.98
2019-01-24T16:25:39.785Z,64.28
2019-01-24T16:28:09.308Z,64.38
2019-01-24T16:30:39.032Z,64.85
2019-01-24T16:33:09.107Z,65.22
2019-01-24T16:35:38.981Z,65.09
2019-01-24T16:38:09.613Z,65.24
2019-01-24T16:40:39.832Z,66.01
2019-01-24T16:43:09.661Z,66.36
2019-01-24T16:45:39.954Z,66.37
2019-01-24T16:48:09.623Z,66.74
2019-01-24T16:50:39.394Z,66.72
2019-01-24T16:53:09.191Z,66.85
2019-01-24T16:55:38.883Z,66.67
2019-01-24T16:58:08.598Z,66.94
2019-01-24T17:00:41.513Z,67.11
2019-01-24T17:03:11.252Z,67.69
2019-01-24T17:05:41.031Z,68.13
2019-01-24T17:08:16.501Z,68.82
2019-01-24T17:10:42.572Z,68.98
2019-01-24T17:13:12.199Z,69.19
2019-01-24T17:15:42.294Z,69.24
2019-01-24T17:18:11.997Z,69.25
2019-01-24T17:20:41.689Z,69.39
2019-01-24T17:23:11.521Z,70.02
2019-01-24T17:25:41.474Z,70.44
2019-01-24T17:28:11.540Z,70.95
2019-01-24T17:30:41.540Z,71.04
2019-01-24T17:33:11.177Z,71.02
2019-01-24T17:35:41.008Z,70.90
2019-01-24T17:38:10.764Z,71.34
2019-01-24T17:40:40.575Z,71.48
2019-01-24T17:43:10.120Z,71.87
2019-01-24T17:45:39.817Z,72.19
2019-01-24T17:48:10.111Z,72.48
2019-01-24T17:50:39.906Z,72.58
2019-01-24T17:53:09.479Z,72.94
2019-01-24T17:55:41.794Z,72.97
2019-01-24T17:58:11.480Z,73.00
2019-01-24T18:00:42.787Z,73.17
2019-01-24T18:03:12.463Z,73.05
2019-01-24T18:05:42.133Z,73.51
2019-01-24T18:08:12.031Z,73.69
2019-01-24T18:10:41.732Z,73.62
2019-01-24T18:13:11.418Z,73.73
2019-01-24T18:15:41.484Z,73.67
2019-01-24T18:18:13.243Z,73.81
2019-01-24T18:20:44.316Z,73.95
2019-01-24T18:23:14.388Z,74.16
2019-01-24T18:25:44.111Z,74.58
2019-01-24T18:28:14.161Z,74.63
2019-01-24T18:30:44.002Z,74.67
2019-01-24T18:33:13.786Z,74.28
2019-01-24T18:35:43.624Z,74.17
2019-01-24T18:38:13.435Z,74.20
2019-01-24T18:40:43.304Z,74.22
2019-01-24T18:43:15.786Z,74.13
2019-01-24T18:45:48.119Z,73.82
2019-01-24T18:48:18.225Z,73.65
2019-01-24T18:50:48.424Z,73.46
2019-01-24T18:53:17.889Z,73.12
2019-01-24T18:55:47.499Z,73.01
2019-01-24T18:58:17.518Z,72.96
2019-01-24T19:00:47.278Z,72.90
2019-01-24T19:03:16.868Z,73.51
2019-01-24T19:05:46.548Z,73.29
2019-01-24T19:08:16.738Z,73.03
2019-01-24T19:10:46.710Z,73.27
2019-01-24T19:13:16.561Z,73.29
2019-01-24T19:15:46.447Z,73.25
2019-01-24T19:18:16.192Z,73.41
2019-01-24T19:20:46.023Z,73.54
2019-01-24T19:23:16.018Z,73.25
2019-01-24T19:25:45.681Z,73.42
2019-01-24T19:28:15.457Z,73.39
2019-01-24T19:30:46.647Z,73.65
2019-01-24T19:33:16.387Z,73.66
2019-01-24T19:35:46.198Z,73.79
2019-01-24T19:38:15.924Z,74.03
2019-01-24T19:40:45.628Z,74.18
2019-01-24T19:43:15.363Z,74.26
2019-01-24T19:45:45.085Z,74.71
2019-01-24T19:48:15.040Z,74.66
2019-01-24T19:50:44.628Z,74.57
2019-01-24T19:53:15.015Z,74.48
2019-01-24T19:55:45.042Z,74.50
2019-01-24T19:58:14.967Z,74.52
2019-01-24T20:00:45.155Z,74.46
2019-01-24T20:03:14.739Z,74.28
2019-01-24T20:05:44.800Z,74.52
2019-01-24T20:08:14.582Z,74.46
2019-01-24T20:10:44.271Z,74.70
2019-01-24T20:13:14.043Z,74.83
2019-01-24T20:15:44.184Z,74.84
2019-01-24T20:18:14.210Z,74.90
2019-01-24T20:20:43.960Z,74.99
2019-01-24T20:23:13.702Z,75.10
2019-01-24T20:25:43.722Z,74.84
2019-01-24T20:28:13.392Z,74.82
2019-01-24T20:30:43.207Z,74.88
2019-01-24T20:33:13.390Z,74.90
2019-01-24T20:35:49.582Z,74.42
2019-01-24T20:38:19.695Z,74.49
2019-01-24T20:40:49.521Z,74.94
2019-01-24T20:43:19.315Z,74.76
2019-01-24T20:45:48.935Z,74.35
2019-01-24T20:48:18.530Z,74.16
2019-01-24T20:50:48.336Z,74.32
2019-01-24T20:53:18.087Z,74.38
2019-01-24T20:55:48.767Z,74.41
2019-01-24T20:58:18.967Z,74.03
2019-01-24T21:00:48.661Z,74.32
2019-01-24T21:03:18.534Z,74.40
2019-01-24T21:05:48.445Z,74.58
2019-01-24T21:08:18.087Z,74.68
2019-01-24T21:10:55.461Z,74.66
2019-01-24T21:13:25.539Z,74.83
2019-01-24T21:15:55.201Z,74.92
2019-01-24T21:18:24.940Z,75.12
2019-01-24T21:20:54.722Z,75.32
2019-01-24T21:23:24.471Z,75.45
2019-01-24T21:25:54.790Z,75.49
2019-01-24T21:28:24.736Z,75.42
2019-01-24T21:30:54.730Z,75.58
2019-01-24T21:33:24.861Z,75.77
2019-01-24T21:35:54.704Z,75.81
2019-01-24T21:38:23.931Z,75.64
2019-01-24T21:40:54.007Z,75.75
2019-01-24T21:43:23.754Z,75.90
2019-01-24T21:45:53.208Z,75.87
2019-01-24T21:48:22.900Z,75.87
2019-01-24T21:50:52.561Z,75.81
2019-01-24T21:53:21.765Z,76.10
2019-01-24T21:55:51.145Z,76.50
2019-01-24T21:58:21.501Z,76.65
2019-01-24T22:00:51.173Z,76.91
2019-01-24T22:03:20.895Z,76.69
2019-01-24T22:05:50.627Z,76.89
2019-01-24T22:08:20.418Z,77.15
2019-01-24T22:10:50.371Z,77.16
2019-01-24T22:13:20.130Z,77.23
2019-01-24T22:15:49.833Z,77.33
2019-01-24T22:18:19.619Z,77.52
2019-01-24T22:20:55.462Z,77.62
2019-01-24T22:23:20.631Z,77.77
2019-01-24T22:25:50.538Z,77.54
2019-01-24T22:28:20.384Z,77.64
2019-01-24T22:30:50.349Z,77.82
2019-01-24T22:33:20.097Z,77.61
2019-01-24T22:35:49.886Z,77.64
2019-01-24T22:38:19.503Z,77.60
2019-01-24T22:40:49.282Z,78.23
2019-01-24T22:43:18.975Z,78.45
2019-01-24T22:45:48.630Z,78.75
2019-01-24T22:48:18.462Z,78.93
2019-01-24T22:50:48.135Z,78.97
2019-01-24T22:53:17.413Z,78.86
2019-01-24T22:55:47.259Z,78.92
2019-01-24T22:58:17.241Z,78.97
2019-01-24T23:00:53.387Z,79.10
2019-01-24T23:03:26.001Z,79.28
2019-01-24T23:05:55.680Z,79.23
2019-01-24T23:08:25.389Z,79.29
2019-01-24T23:10:55.149Z,79.39
2019-01-24T23:13:24.886Z,79.26
2019-01-24T23:15:54.855Z,79.45
2019-01-24T23:18:24.576Z,79.40
2019-01-24T23:20:54.315Z,79.44
2019-01-24T23:23:24.035Z,79.67
2019-01-24T23:25:53.909Z,79.89
2019-01-24T23:28:23.596Z,79.99
2019-01-24T23:30:53.401Z,80.10
2019-01-24T23:33:23.218Z,80.05
2019-01-24T23:35:52.958Z,79.47
2019-01-24T23:38:22.831Z,79.69
2019-01-24T23:40:52.463Z,79.80
2019-01-24T23:43:22.329Z,80.17
2019-01-24T23:45:52.291Z,80.28
2019-01-24T23:48:21.974Z,80.17
2019-01-24T23:50:51.689Z,80.09
2019-01-24T23:53:21.184Z,79.93
2019-01-24T23:55:50.947Z,80.02
2019-01-24T23:58:20.505Z,79.92
